Aviation Digital Data Service (ADDS)

Output produced by METARs form (1332 UTC 21 August 2019)
found at http://www.aviationweather.gov/metar/data/
 
Forecast for: AMD
Text: TAF AMD ANYN 210928Z 2112/2212 12006KT 9999 -SHRA SCT018 SCT030 BKN120 INTER 2112/2124 5000 SHRA BKN008 T 26 27 27 27 Q 1009 1008 1006 1007
Forecast period: 1200 UTC 21 August 2019 to 1200 UTC 22 August 2019
Forecast type: FROM: standard forecast or significant change
Winds: from the ESE (120 degrees) at 7 MPH (6 knots; 3.1 m/s)
Visibility: 6 or more miles 10+ km)
Ceiling: 12000 feet AGL
Clouds: scattered clouds at 1800 feet AGL
scattered clouds at 3000 feet AGL
broken clouds at 12000 feet AGL
Weather: -SHRA  (light rain showers)
Text:
Forecast period: 1200 UTC 21 August 2019 to 0000 UTC 22 August 2019
Forecast type: TEMPORARY: The following changes expected for less than half the time period
Visibility: 3 miles (5 km)
Ceiling: 800 feet AGL
Clouds: broken clouds at 800 feet AGL
Weather: SHRA  (rain showers)